Dl Adonis — 3EIT4 — position and weather

sailwx.info

Track history (hours):
 
Tides and Currents Weather Stations Pressure Air Temp Water Temp Dewpoint Dewpoint Depression Visibility Wind Speed Wind Dir Waves Ship Positions

Dl Adonis

Last reported at 2018-Apr-16 04:10 UTC. Time now 2018-Jun-19 02:28 UTC.
Position N 30°60' E 122°29'.
Warning: this ship's position is months out of date.

Length 222 m; draft 7.5 m.

Type: Ship. MMSI: 352867000.

Date/timePositionNaut miles runAvg speedWind from/ knotsBaromVisibWave heightAir tempDewpointWater temp
2018-Apr-16 04:10N 30°60' E 122°29'3 9.5
2018-Apr-16 03:52N 31°01' E 122°26'4 9.3
2018-Apr-16 03:27N 31°01' E 122°21'4 9.6
2018-Apr-16 03:00N 31°02' E 122°17'4 7.7
2018-Apr-16 02:30N 31°03' E 122°12'610.3
2018-Apr-16 01:54N 31°04' E 122°05'4 9.1
2018-Apr-16 01:30N 31°05' E 122°01'4 8.3
2018-Apr-16 01:00N 31°07' E 121°57'4 7.6
2018-Apr-16 00:30N 31°09' E 121°53'612.2
2018-Apr-16 00:00N 31°13' E 121°48'1611.0
2018-Apr-15 22:32N 31°24' E 121°34'7 9.8
2018-Apr-15 21:48N 31°28' E 121°27'310.4
2018-Apr-15 21:30N 31°30' E 121°24'510.0
2018-Apr-15 21:00N 31°33' E 121°20'5 9.4
2018-Apr-15 20:30N 31°37' E 121°16'4 8.7
2018-Apr-15 20:00N 31°40' E 121°12'5 9.0
2018-Apr-15 19:30N 31°42' E 121°08'3 6.6
2018-Apr-15 19:00N 31°45' E 121°05'4 7.5
2018-Apr-15 18:27N 31°46' E 121°01'4 8.1
2018-Apr-15 17:56N 31°47' E 120°56'4 8.8
2018-Apr-15 17:29N 31°51' E 120°54'511.0
2018-Apr-15 17:00N 31°56' E 120°52'4 8.8
2018-Apr-15 16:30N 31°59' E 120°50'5 7.3
2018-Apr-15 15:51N 32°00' E 120°44'4 8.3
2018-Apr-15 15:22N 31°60' E 120°39'6 9.3
2018-Apr-15 14:46N 32°01' E 120°33'2 7.1
2018-Apr-15 14:30N 32°02' E 120°31'5 9.1
2018-Apr-15 14:00N 32°02' E 120°26'  
2018-Apr-11 09:52N 32°02' E 120°25'410.1
2018-Apr-11 09:29N 32°02' E 120°30'5 9.5
2018-Apr-11 09:00N 32°00' E 120°35'41 9.5
2018-Apr-11 04:41N 31°38' E 121°15'212.0
2018-Apr-11 04:30N 31°36' E 121°17'612.1
2018-Apr-11 04:00N 31°32' E 121°22'612.2
2018-Apr-11 03:30N 31°28' E 121°27'4 8.7
2018-Apr-11 03:00N 31°25' E 121°31'15 9.6
2018-Apr-11 01:25N 31°18' E 121°47'47 4.8
2018-Apr-10 15:47N 31°09' E 122°40'913.7
2018-Apr-10 15:09N 31°07' E 122°50'10 7.6
2018-Apr-10 13:50N 31°05' E 123°02'  
Track history (hours):
 
Tides and Currents Weather Stations Pressure Air Temp Water Temp Dewpoint Dewpoint Depression Visibility Wind Speed Wind Dir Waves Ship Positions

Dl Adonis

Last reported at 2018-Apr-16 04:10 UTC. Time now 2018-Jun-19 02:28 UTC.
Position N 30°60' E 122°29'.
Warning: this ship's position is months out of date.

Length 222 m; draft 7.5 m.

Type: Ship. MMSI: 352867000.

Date/timePositionNaut miles runAvg speedWind from/ knotsBaromVisibWave heightAir tempDewpointWater temp
2018-Apr-16 04:10N 30°60' E 122°29'3 9.5
2018-Apr-16 03:52N 31°01' E 122°26'4 9.3
2018-Apr-16 03:27N 31°01' E 122°21'4 9.6
2018-Apr-16 03:00N 31°02' E 122°17'4 7.7
2018-Apr-16 02:30N 31°03' E 122°12'610.3
2018-Apr-16 01:54N 31°04' E 122°05'4 9.1
2018-Apr-16 01:30N 31°05' E 122°01'4 8.3
2018-Apr-16 01:00N 31°07' E 121°57'4 7.6
2018-Apr-16 00:30N 31°09' E 121°53'612.2
2018-Apr-16 00:00N 31°13' E 121°48'1611.0
2018-Apr-15 22:32N 31°24' E 121°34'7 9.8
2018-Apr-15 21:48N 31°28' E 121°27'310.4
2018-Apr-15 21:30N 31°30' E 121°24'510.0
2018-Apr-15 21:00N 31°33' E 121°20'5 9.4
2018-Apr-15 20:30N 31°37' E 121°16'4 8.7
2018-Apr-15 20:00N 31°40' E 121°12'5 9.0
2018-Apr-15 19:30N 31°42' E 121°08'3 6.6
2018-Apr-15 19:00N 31°45' E 121°05'4 7.5
2018-Apr-15 18:27N 31°46' E 121°01'4 8.1
2018-Apr-15 17:56N 31°47' E 120°56'4 8.8
2018-Apr-15 17:29N 31°51' E 120°54'511.0
2018-Apr-15 17:00N 31°56' E 120°52'4 8.8
2018-Apr-15 16:30N 31°59' E 120°50'5 7.3
2018-Apr-15 15:51N 32°00' E 120°44'4 8.3
2018-Apr-15 15:22N 31°60' E 120°39'6 9.3
2018-Apr-15 14:46N 32°01' E 120°33'2 7.1
2018-Apr-15 14:30N 32°02' E 120°31'5 9.1
2018-Apr-15 14:00N 32°02' E 120°26'  
2018-Apr-11 09:52N 32°02' E 120°25'410.1
2018-Apr-11 09:29N 32°02' E 120°30'5 9.5
2018-Apr-11 09:00N 32°00' E 120°35'41 9.5
2018-Apr-11 04:41N 31°38' E 121°15'212.0
2018-Apr-11 04:30N 31°36' E 121°17'612.1
2018-Apr-11 04:00N 31°32' E 121°22'612.2
2018-Apr-11 03:30N 31°28' E 121°27'4 8.7
2018-Apr-11 03:00N 31°25' E 121°31'15 9.6
2018-Apr-11 01:25N 31°18' E 121°47'47 4.8
2018-Apr-10 15:47N 31°09' E 122°40'913.7
2018-Apr-10 15:09N 31°07' E 122°50'10 7.6
2018-Apr-10 13:50N 31°05' E 123°02'  

Dump ship's entire track history